Time;durP1;ratioP1;P1;durP2;ratioP2;P2;SDS_P1;SDS_P2;PMS_P1;PMS_P2;Temp;Humidity;BMP_temperature;BMP_pressure;BME280_temperature;BME280_humidity;BME280_pressure;Samples;Min_cycle;Max_cycle;Signal;HPM_P1;HPM_P2
2021/08/24 00:01:52;;;;;;;16.80;11.85;;;14.90;99.90;;;;;;5041212;28;20100;-60
2021/08/24 00:04:17;;;;;;;17.92;12.07;;;14.90;99.90;;;;;;5030576;28;20078;-59
2021/08/24 00:06:43;;;;;;;23.85;12.68;;;14.80;99.90;;;;;;5037209;28;20444;-61
2021/08/24 00:09:08;;;;;;;15.82;11.18;;;14.80;99.90;;;;;;5035418;28;20033;-61
2021/08/24 00:11:34;;;;;;;16.38;10.85;;;14.70;99.90;;;;;;5040082;28;20033;-61
2021/08/24 00:14:06;;;;;;;17.30;12.13;;;14.60;99.90;;;;;;5037459;28;20025;-62
2021/08/24 00:16:32;;;;;;;17.88;11.52;;;14.60;99.90;;;;;;5042496;28;20021;-61
2021/08/24 00:18:57;;;;;;;19.95;12.13;;;14.50;99.90;;;;;;5041480;28;20032;-61
2021/08/24 00:21:23;;;;;;;21.40;12.73;;;14.50;99.90;;;;;;5035622;28;20031;-62
2021/08/24 00:23:49;;;;;;;17.95;11.65;;;14.50;99.90;;;;;;5040475;28;20168;-61
2021/08/24 00:26:14;;;;;;;15.68;10.63;;;14.50;99.90;;;;;;5034588;28;20056;-62
2021/08/24 00:28:40;;;;;;;17.13;10.57;;;14.60;99.90;;;;;;5037529;28;20067;-61
2021/08/24 00:31:06;;;;;;;21.25;10.57;;;14.50;99.90;;;;;;5031028;28;20030;-60
2021/08/24 00:33:31;;;;;;;14.52;9.95;;;14.50;99.90;;;;;;5032801;28;20033;-59
2021/08/24 00:35:57;;;;;;;13.45;9.32;;;14.50;99.90;;;;;;5038381;28;20029;-60
2021/08/24 00:38:24;;;;;;;13.50;9.80;;;14.50;99.90;;;;;;5039524;28;20033;-61
2021/08/24 00:40:53;;;;;;;14.55;9.88;;;14.50;99.90;;;;;;5031055;28;20112;-61
2021/08/24 00:43:20;;;;;;;15.93;10.88;;;14.50;99.90;;;;;;5036781;28;20036;-61
2021/08/24 00:45:50;;;;;;;15.27;11.20;;;14.40;99.90;;;;;;5032214;28;20029;-61
2021/08/24 00:48:16;;;;;;;18.75;10.98;;;14.30;99.90;;;;;;5029841;28;20037;-61
2021/08/24 00:50:47;;;;;;;18.08;11.90;;;14.30;99.90;;;;;;5034293;28;20120;-60
2021/08/24 00:53:17;;;;;;;19.08;11.20;;;14.20;99.90;;;;;;5036916;28;20033;-61
2021/08/24 00:55:44;;;;;;;15.95;11.80;;;14.20;99.90;;;;;;5034180;28;20116;-61
2021/08/24 00:58:12;;;;;;;14.52;10.70;;;14.20;99.90;;;;;;5036724;28;20036;-62
2021/08/24 01:00:39;;;;;;;18.08;11.25;;;14.20;99.90;;;;;;5038558;28;20495;-61
2021/08/24 01:03:20;;;;;;;21.90;11.40;;;14.20;99.90;;;;;;5037811;28;20044;-62
2021/08/24 01:05:51;;;;;;;19.90;10.15;;;14.10;99.90;;;;;;5040715;28;20168;-62
2021/08/24 01:08:38;;;;;;;16.83;12.18;;;14.00;99.90;;;;;;5042408;28;20100;-61
2021/08/24 01:11:10;;;;;;;16.60;11.35;;;14.00;99.90;;;;;;5034882;28;20040;-62
2021/08/24 01:13:42;;;;;;;21.23;11.50;;;14.10;99.90;;;;;;5034189;28;20036;-62
2021/08/24 01:16:20;;;;;;;15.23;11.02;;;14.10;99.90;;;;;;5042657;28;20160;-61
2021/08/24 01:19:04;;;;;;;17.33;11.65;;;14.00;99.90;;;;;;5039576;28;20026;-61
2021/08/24 01:22:01;;;;;;;19.63;11.10;;;14.00;99.90;;;;;;5042080;28;20039;-62
2021/08/24 01:24:52;;;;;;;19.73;12.25;;;13.80;99.90;;;;;;5040716;28;20108;-60
2021/08/24 01:27:45;;;;;;;16.67;10.80;;;13.90;99.90;;;;;;5036974;28;20037;-59
2021/08/24 01:30:44;;;;;;;17.85;11.23;;;13.80;99.90;;;;;;4992558;28;20508;-61
2021/08/24 01:33:24;;;;;;;15.02;9.32;;;13.70;99.90;;;;;;5035413;28;20108;-61
2021/08/24 01:36:17;;;;;;;18.48;10.65;;;13.70;99.90;;;;;;5039056;28;20158;-61
2021/08/24 01:38:54;;;;;;;16.25;9.82;;;13.60;99.90;;;;;;5040311;28;20083;-62
2021/08/24 01:41:46;;;;;;;17.40;9.48;;;13.60;99.90;;;;;;5035225;28;20079;-62
2021/08/24 01:44:17;;;;;;;17.95;9.15;;;13.60;99.90;;;;;;5045974;28;20452;-61
2021/08/24 01:47:01;;;;;;;12.65;9.10;;;13.60;99.90;;;;;;5038215;28;20068;-62
2021/08/24 01:49:39;;;;;;;16.57;9.43;;;13.60;99.90;;;;;;5045742;28;20396;-62
2021/08/24 01:52:08;;;;;;;14.25;8.93;;;13.60;99.90;;;;;;5035642;28;20338;-60
2021/08/24 01:54:40;;;;;;;11.80;9.30;;;13.50;99.90;;;;;;5036287;28;20029;-61
2021/08/24 01:57:14;;;;;;;16.73;8.55;;;13.50;99.90;;;;;;5035170;28;20435;-61
2021/08/24 01:59:47;;;;;;;14.80;8.88;;;13.50;99.90;;;;;;5038489;28;20028;-62
2021/08/24 02:02:20;;;;;;;15.55;8.85;;;13.50;99.90;;;;;;5037767;28;20040;-62
2021/08/24 02:04:58;;;;;;;15.98;8.18;;;13.40;99.90;;;;;;5039319;28;20109;-62
2021/08/24 02:07:27;;;;;;;12.35;8.63;;;13.40;99.90;;;;;;5035558;28;20100;-61
2021/08/24 02:09:58;;;;;;;13.98;8.45;;;13.40;99.90;;;;;;5037297;28;20037;-62
2021/08/24 02:12:26;;;;;;;13.68;7.70;;;13.40;99.90;;;;;;5039882;28;20036;-62
2021/08/24 02:14:51;;;;;;;10.90;8.15;;;13.40;99.90;;;;;;5045555;28;20528;-62
2021/08/24 02:17:20;;;;;;;13.60;7.95;;;13.40;99.90;;;;;;5038015;28;20104;-62
2021/08/24 02:19:52;;;;;;;12.73;7.88;;;13.50;99.90;;;;;;5043677;28;20033;-62
2021/08/24 02:22:31;;;;;;;14.32;8.23;;;13.50;99.90;;;;;;5040781;28;20028;-60
2021/08/24 02:25:03;;;;;;;13.30;8.60;;;13.50;99.90;;;;;;5068121;22;20028;-60
2021/08/24 02:27:31;;;;;;;13.70;8.23;;;13.50;99.90;;;;;;5039432;28;20029;-57
2021/08/24 02:29:58;;;;;;;11.93;7.72;;;13.50;99.90;;;;;;5050400;28;20020;-60
2021/08/24 02:32:28;;;;;;;16.20;8.55;;;13.60;99.90;;;;;;5036384;28;20029;-61
2021/08/24 02:35:07;;;;;;;11.95;8.25;;;13.60;99.90;;;;;;5039784;28;20131;-63
2021/08/24 02:37:47;;;;;;;12.02;8.10;;;13.70;99.90;;;;;;5040629;28;20246;-61
2021/08/24 02:40:24;;;;;;;14.18;8.18;;;13.70;99.90;;;;;;5033988;28;20029;-60
2021/08/24 02:42:58;;;;;;;13.23;8.25;;;13.60;99.90;;;;;;5034270;28;20447;-58
2021/08/24 02:45:31;;;;;;;14.65;8.23;;;13.70;99.90;;;;;;5024744;28;20025;-59
2021/08/24 02:47:58;;;;;;;13.27;8.52;;;13.70;99.90;;;;;;5026883;28;20468;-58
2021/08/24 02:50:25;;;;;;;12.80;8.27;;;13.70;99.90;;;;;;5048501;28;20024;-59
2021/08/24 02:52:51;;;;;;;14.07;8.27;;;13.70;99.90;;;;;;5035405;28;20497;-62
2021/08/24 02:55:17;;;;;;;16.60;8.20;;;13.70;99.90;;;;;;5034891;28;20022;-59
2021/08/24 02:57:43;;;;;;;16.92;8.55;;;13.60;99.90;;;;;;5046908;28;20111;-58
2021/08/24 03:00:09;;;;;;;9.85;7.97;;;13.70;99.90;;;;;;5032543;28;20112;-57
2021/08/24 03:02:34;;;;;;;16.13;8.30;;;13.70;99.90;;;;;;5031838;28;20037;-57
2021/08/24 03:05:00;;;;;;;19.88;8.75;;;13.70;99.90;;;;;;5034762;28;20037;-55
2021/08/24 03:07:31;;;;;;;15.88;8.88;;;13.70;99.90;;;;;;5041120;28;20040;-60
2021/08/24 03:10:02;;;;;;;13.05;7.90;;;13.80;99.90;;;;;;5036426;28;20036;-60
2021/08/24 03:12:54;;;;;;;13.73;8.02;;;13.80;99.90;;;;;;5037688;28;20071;-65
2021/08/24 03:15:38;;;;;;;12.00;8.00;;;13.80;99.90;;;;;;5037095;28;20477;-57
2021/08/24 03:18:11;;;;;;;14.65;7.10;;;13.70;99.90;;;;;;5033697;28;20109;-58
2021/08/24 03:20:42;;;;;;;16.02;7.90;;;13.80;99.90;;;;;;5032008;28;20029;-57
2021/08/24 03:23:11;;;;;;;9.95;6.82;;;13.70;99.90;;;;;;5036062;28;20471;-54
2021/08/24 03:25:40;;;;;;;14.75;6.82;;;13.70;99.90;;;;;;5043576;28;20338;-57
2021/08/24 03:28:10;;;;;;;14.30;6.70;;;13.70;99.90;;;;;;5036076;28;20052;-59
2021/08/24 03:30:37;;;;;;;15.18;6.93;;;13.60;99.90;;;;;;5032606;28;20487;-60
2021/08/24 03:33:03;;;;;;;9.70;7.40;;;13.60;99.90;;;;;;5033922;28;20519;-58
2021/08/24 03:35:29;;;;;;;13.10;7.55;;;13.50;99.90;;;;;;5041846;28;20061;-60
2021/08/24 03:37:54;;;;;;;12.77;6.45;;;13.50;99.90;;;;;;5041482;28;20017;-58
2021/08/24 03:40:20;;;;;;;10.13;7.15;;;13.40;99.90;;;;;;5035717;28;20045;-58
2021/08/24 03:42:45;;;;;;;11.80;6.90;;;13.30;99.90;;;;;;5030618;28;20029;-61
2021/08/24 03:45:12;;;;;;;9.50;6.68;;;13.30;99.90;;;;;;5034901;28;20041;-60
2021/08/24 03:47:38;;;;;;;12.50;7.07;;;13.30;99.90;;;;;;5041391;28;20024;-59
2021/08/24 03:50:06;;;;;;;11.48;6.80;;;13.30;99.90;;;;;;5038567;28;20076;-60
2021/08/24 03:52:31;;;;;;;16.63;6.82;;;13.20;99.90;;;;;;5035645;28;20024;-60
2021/08/24 03:54:57;;;;;;;10.23;6.57;;;13.20;99.90;;;;;;5036060;28;20523;-59
2021/08/24 03:57:22;;;;;;;11.07;7.78;;;13.10;99.90;;;;;;5034249;28;20056;-58
2021/08/24 03:59:48;;;;;;;11.10;6.85;;;13.10;99.90;;;;;;5035469;28;20032;-56
2021/08/24 04:02:15;;;;;;;11.50;6.22;;;13.00;99.90;;;;;;5034935;28;20120;-59
2021/08/24 04:04:40;;;;;;;13.73;7.22;;;13.10;99.90;;;;;;5041373;28;20108;-60
2021/08/24 04:07:06;;;;;;;12.13;6.32;;;13.00;99.90;;;;;;5032298;28;20174;-58
2021/08/24 04:09:31;;;;;;;13.65;6.65;;;13.00;99.90;;;;;;5040078;28;20483;-57
2021/08/24 04:11:57;;;;;;;11.45;6.70;;;13.00;99.90;;;;;;5033975;28;20033;-60
2021/08/24 04:14:22;;;;;;;11.10;6.07;;;12.90;99.90;;;;;;5032211;28;20037;-57
2021/08/24 04:16:48;;;;;;;13.45;6.78;;;12.90;99.90;;;;;;5038061;28;20033;-59
2021/08/24 04:19:13;;;;;;;12.20;6.80;;;12.80;99.90;;;;;;5043248;28;20036;-59
2021/08/24 04:21:41;;;;;;;12.90;7.43;;;12.70;99.90;;;;;;5036195;28;20029;-58
2021/08/24 04:24:07;;;;;;;11.20;6.57;;;12.70;99.90;;;;;;5038101;28;20025;-57
2021/08/24 04:26:33;;;;;;;14.07;7.38;;;12.70;99.90;;;;;;5037677;28;20140;-60
2021/08/24 04:28:58;;;;;;;15.57;7.07;;;12.70;99.90;;;;;;5041347;28;20427;-58
2021/08/24 04:31:24;;;;;;;10.57;6.75;;;12.60;99.90;;;;;;5041401;28;20102;-58
2021/08/24 04:33:50;;;;;;;11.23;6.35;;;12.60;99.90;;;;;;5034818;28;20029;-57
2021/08/24 04:36:16;;;;;;;12.55;7.03;;;12.60;99.90;;;;;;5033239;28;20405;-58
2021/08/24 04:38:41;;;;;;;16.73;7.57;;;12.60;99.90;;;;;;5043093;28;20044;-60
2021/08/24 04:41:07;;;;;;;12.80;7.10;;;12.50;99.90;;;;;;5040652;28;20037;-61
2021/08/24 04:43:34;;;;;;;12.23;7.13;;;12.50;99.90;;;;;;5029054;28;20084;-58
2021/08/24 04:46:00;;;;;;;16.42;6.88;;;12.50;99.90;;;;;;5041641;28;20037;-57
2021/08/24 04:48:26;;;;;;;11.20;7.30;;;12.50;99.90;;;;;;5038013;28;20029;-58
2021/08/24 04:50:52;;;;;;;10.13;6.57;;;12.40;99.90;;;;;;5035413;28;20561;-57
2021/08/24 04:53:17;;;;;;;12.13;6.82;;;12.40;99.90;;;;;;5027173;28;20029;-55
2021/08/24 04:55:43;;;;;;;13.75;6.60;;;12.40;99.90;;;;;;5039505;28;20033;-54
2021/08/24 04:58:09;;;;;;;12.57;6.50;;;12.40;99.90;;;;;;5041242;28;20025;-60
2021/08/24 05:00:35;;;;;;;12.25;6.75;;;12.30;99.90;;;;;;5033494;28;20047;-57
2021/08/24 05:03:01;;;;;;;17.58;7.15;;;12.40;99.90;;;;;;5031890;28;20485;-56
2021/08/24 05:05:27;;;;;;;13.35;7.38;;;12.30;99.90;;;;;;5036484;28;20030;-60
2021/08/24 05:07:53;;;;;;;13.73;7.03;;;12.30;99.90;;;;;;5033583;28;20033;-61
2021/08/24 05:10:19;;;;;;;10.13;6.90;;;12.40;99.90;;;;;;5036584;28;20485;-59
2021/08/24 05:12:45;;;;;;;11.38;6.38;;;12.40;99.90;;;;;;5035557;28;20116;-61
2021/08/24 05:15:11;;;;;;;10.63;7.35;;;12.30;99.90;;;;;;5031752;28;20116;-59
2021/08/24 05:17:37;;;;;;;9.23;7.22;;;12.40;99.90;;;;;;5026147;28;20043;-59
2021/08/24 05:20:05;;;;;;;10.15;6.75;;;12.40;99.90;;;;;;5038211;28;20064;-60
2021/08/24 05:22:30;;;;;;;13.88;7.00;;;12.50;99.90;;;;;;5018602;28;20025;-59
2021/08/24 05:24:56;;;;;;;12.80;6.53;;;12.50;99.90;;;;;;5037510;28;20039;-62
2021/08/24 05:27:22;;;;;;;16.95;6.78;;;12.60;99.90;;;;;;5031522;28;20032;-62
2021/08/24 05:29:47;;;;;;;11.82;6.88;;;12.60;99.90;;;;;;5034770;28;20029;-58
2021/08/24 05:32:13;;;;;;;16.08;6.80;;;12.60;99.90;;;;;;5030188;28;20036;-59
2021/08/24 05:34:39;;;;;;;14.63;7.57;;;12.70;99.90;;;;;;5036450;28;20108;-58
2021/08/24 05:37:05;;;;;;;13.35;6.85;;;12.70;99.90;;;;;;5036032;28;20036;-59
2021/08/24 05:39:32;;;;;;;15.60;7.38;;;12.80;99.90;;;;;;5037897;28;20087;-57
2021/08/24 05:41:58;;;;;;;14.23;7.18;;;12.80;99.90;;;;;;5034283;28;20647;-57
2021/08/24 05:44:24;;;;;;;11.48;7.82;;;12.90;99.90;;;;;;5036711;28;20068;-59
2021/08/24 05:46:50;;;;;;;12.55;7.28;;;12.90;99.90;;;;;;5035497;28;20037;-55
2021/08/24 05:49:15;;;;;;;13.75;6.82;;;12.90;99.90;;;;;;5033423;28;20400;-59
2021/08/24 05:51:41;;;;;;;12.25;7.45;;;13.00;99.90;;;;;;5036234;28;20110;-59
2021/08/24 05:54:07;;;;;;;13.77;7.72;;;13.10;99.90;;;;;;5039565;28;20139;-59
2021/08/24 05:56:32;;;;;;;13.73;7.45;;;13.10;99.90;;;;;;5036758;28;20068;-60
2021/08/24 05:58:58;;;;;;;15.25;7.40;;;13.20;99.90;;;;;;5038799;28;20029;-59
2021/08/24 06:01:30;;;;;;;16.15;6.93;;;13.30;99.90;;;;;;5043015;28;20021;-60
2021/08/24 06:03:57;;;;;;;10.57;6.15;;;13.40;99.90;;;;;;5039079;28;20032;-60
2021/08/24 06:06:29;;;;;;;9.45;6.38;;;13.50;99.90;;;;;;5039444;28;20370;-58
2021/08/24 06:08:56;;;;;;;14.43;5.97;;;13.50;99.90;;;;;;5038618;28;20438;-60
2021/08/24 06:11:30;;;;;;;9.85;5.68;;;13.60;99.90;;;;;;5038688;28;20033;-61
2021/08/24 06:13:58;;;;;;;13.30;6.05;;;13.70;99.90;;;;;;5043649;28;20032;-60
2021/08/24 06:16:24;;;;;;;12.55;6.22;;;13.80;99.90;;;;;;5039516;28;20029;-59
2021/08/24 06:18:50;;;;;;;13.77;5.47;;;13.80;99.90;;;;;;5043034;28;20101;-59
2021/08/24 06:21:16;;;;;;;18.83;6.13;;;13.90;99.90;;;;;;5041588;28;20112;-61
2021/08/24 06:23:42;;;;;;;20.75;6.22;;;13.90;99.90;;;;;;5044430;28;20024;-62
2021/08/24 06:26:08;;;;;;;11.68;5.65;;;14.00;99.90;;;;;;5051437;28;20570;-60
2021/08/24 06:28:34;;;;;;;10.20;5.25;;;14.10;99.90;;;;;;5048284;28;20033;-59
2021/08/24 06:31:00;;;;;;;12.98;5.53;;;14.10;99.90;;;;;;5044303;28;20086;-61
2021/08/24 06:33:29;;;;;;;11.75;5.57;;;14.20;99.90;;;;;;5046369;28;20041;-59
2021/08/24 06:35:55;;;;;;;13.80;5.60;;;14.30;99.90;;;;;;5039235;28;20033;-61
2021/08/24 06:38:21;;;;;;;9.45;5.25;;;14.50;99.90;;;;;;5051004;28;20025;-62
2021/08/24 06:40:47;;;;;;;9.60;4.15;;;14.60;99.90;;;;;;5049367;28;20053;-59
2021/08/24 06:43:15;;;;;;;10.27;4.78;;;14.60;99.90;;;;;;5047888;28;20048;-59
2021/08/24 06:45:41;;;;;;;10.20;4.97;;;14.70;99.90;;;;;;5031611;28;20040;-61
2021/08/24 06:48:07;;;;;;;12.82;4.95;;;14.70;99.90;;;;;;5048623;28;20033;-58
2021/08/24 06:50:33;;;;;;;7.60;4.97;;;14.80;99.90;;;;;;5032436;28;20021;-61
2021/08/24 06:53:02;;;;;;;12.35;4.40;;;14.80;99.90;;;;;;5035700;28;20100;-61
2021/08/24 06:55:31;;;;;;;10.05;4.80;;;14.90;99.90;;;;;;5046419;28;20449;-60
2021/08/24 06:57:57;;;;;;;10.25;3.60;;;15.10;99.90;;;;;;5038081;28;20025;-62
2021/08/24 07:00:24;;;;;;;8.52;3.25;;;15.30;99.90;;;;;;5035944;28;20064;-61
2021/08/24 07:02:51;;;;;;;5.05;2.92;;;15.40;99.90;;;;;;5030455;28;20158;-62
2021/08/24 07:05:19;;;;;;;5.93;2.80;;;15.60;99.90;;;;;;5039139;28;20029;-61
2021/08/24 07:07:44;;;;;;;15.13;4.15;;;15.70;99.90;;;;;;5041928;28;20021;-58
2021/08/24 07:10:13;;;;;;;7.82;2.60;;;15.80;99.90;;;;;;5042160;28;20037;-61
2021/08/24 07:12:39;;;;;;;4.18;2.60;;;15.90;99.90;;;;;;5048300;28;20036;-60
2021/08/24 07:15:07;;;;;;;19.75;2.80;;;16.00;99.90;;;;;;5039992;28;20032;-58
2021/08/24 07:17:33;;;;;;;11.85;3.85;;;16.00;99.90;;;;;;5035611;28;20591;-59
2021/08/24 07:19:58;;;;;;;6.28;2.85;;;16.10;99.90;;;;;;5044065;28;20831;-61
2021/08/24 07:22:24;;;;;;;18.35;3.08;;;16.20;99.90;;;;;;5040410;28;20096;-61
2021/08/24 07:24:50;;;;;;;14.23;2.78;;;16.30;99.90;;;;;;5042516;28;20468;-57
2021/08/24 07:27:15;;;;;;;6.05;2.97;;;16.30;99.90;;;;;;5034020;28;20030;-60
2021/08/24 07:29:41;;;;;;;6.40;2.78;;;16.40;99.90;;;;;;5043321;28;20159;-61
2021/08/24 07:32:08;;;;;;;7.55;3.13;;;16.50;99.90;;;;;;5038759;28;20699;-59
2021/08/24 07:34:34;;;;;;;7.10;2.80;;;16.60;99.90;;;;;;5036270;28;20041;-61
2021/08/24 07:37:00;;;;;;;4.47;2.50;;;16.70;99.90;;;;;;5036816;28;20092;-61
2021/08/24 07:39:26;;;;;;;5.18;2.38;;;16.70;99.90;;;;;;5039888;28;20029;-61
2021/08/24 07:41:52;;;;;;;6.90;2.78;;;16.80;99.90;;;;;;5039306;28;20021;-59
2021/08/24 07:44:23;;;;;;;12.65;3.17;;;16.80;99.90;;;;;;5034790;28;20036;-59
2021/08/24 07:46:49;;;;;;;7.88;1.92;;;16.80;99.90;;;;;;5035144;28;20492;-62
2021/08/24 07:49:15;;;;;;;5.63;1.80;;;16.90;99.90;;;;;;5039558;28;20021;-61
2021/08/24 07:51:40;;;;;;;7.05;1.85;;;17.10;99.90;;;;;;5044767;28;20017;-59
2021/08/24 07:54:06;;;;;;;8.32;1.90;;;17.20;99.90;;;;;;5034644;28;20378;-61
2021/08/24 07:56:32;;;;;;;4.97;2.20;;;17.30;99.90;;;;;;5041402;28;20108;-59
2021/08/24 07:58:57;;;;;;;7.25;2.28;;;17.30;99.90;;;;;;5039335;28;20485;-59
2021/08/24 08:01:23;;;;;;;9.32;1.98;;;17.40;99.90;;;;;;5049608;28;20035;-57
2021/08/24 08:03:49;;;;;;;7.47;1.88;;;17.50;99.90;;;;;;5044070;28;20476;-61
2021/08/24 08:06:14;;;;;;;7.13;2.00;;;17.50;99.90;;;;;;5035799;28;20531;-58
2021/08/24 08:08:40;;;;;;;3.13;1.98;;;17.60;99.90;;;;;;5039805;28;20021;-54
2021/08/24 08:11:06;;;;;;;3.53;1.80;;;17.60;99.90;;;;;;5041288;28;20492;-61
2021/08/24 08:13:31;;;;;;;4.43;2.33;;;17.70;99.90;;;;;;5038183;28;20024;-59
2021/08/24 08:15:57;;;;;;;2.35;1.50;;;17.80;99.90;;;;;;5043388;28;20123;-60
2021/08/24 08:18:23;;;;;;;4.50;1.83;;;17.90;99.90;;;;;;5021561;28;20076;-58
2021/08/24 08:20:48;;;;;;;4.00;1.77;;;17.90;99.90;;;;;;5036091;28;20524;-59
2021/08/24 08:23:17;;;;;;;3.03;1.80;;;17.90;99.90;;;;;;5038603;28;20075;-61
2021/08/24 08:25:43;;;;;;;9.13;2.40;;;18.00;99.90;;;;;;5056396;23;20044;-59
2021/08/24 08:28:09;;;;;;;3.40;2.05;;;18.10;99.90;;;;;;5069697;28;20016;-68
2021/08/24 08:30:35;;;;;;;3.83;1.80;;;18.10;99.90;;;;;;5097449;28;20035;-64
2021/08/24 08:33:05;;;;;;;7.45;2.13;;;18.20;99.90;;;;;;5096926;28;20467;-65
2021/08/24 08:35:32;;;;;;;3.00;2.20;;;18.20;99.90;;;;;;5095267;28;20124;-65
2021/08/24 08:37:58;;;;;;;4.65;2.42;;;18.30;99.90;;;;;;5087196;28;20035;-63
2021/08/24 08:40:42;;;;;;;4.20;2.72;;;18.40;99.90;;;;;;5090849;28;20024;-64
2021/08/24 08:43:26;;;;;;;28.98;4.22;;;18.50;99.90;;;;;;5089522;28;20024;-63
2021/08/24 08:45:55;;;;;;;;;;;18.50;99.90;;;;;;5080147;28;20443;-63
2021/08/24 08:48:37;;;;;;;6.88;2.13;;;18.70;99.90;;;;;;5063701;28;19919;-64
2021/08/24 08:51:34;;;;;;;9.85;2.28;;;18.70;99.90;;;;;;5089596;28;20089;-63
2021/08/24 08:54:20;;;;;;;4.28;1.83;;;18.80;99.90;;;;;;5083534;28;20099;-64
2021/08/24 08:57:02;;;;;;;6.63;2.30;;;18.80;99.90;;;;;;5063622;28;20040;-62
2021/08/24 08:59:38;;;;;;;4.57;2.47;;;18.80;99.90;;;;;;5074622;28;20024;-67
2021/08/24 09:02:29;;;;;;;4.53;2.42;;;18.90;99.90;;;;;;5087188;28;20092;-62
2021/08/24 09:04:56;;;;;;;3.92;2.22;;;19.00;99.90;;;;;;5084902;28;20036;-63
2021/08/24 09:07:42;;;;;;;3.75;1.80;;;19.10;99.90;;;;;;5085725;28;20107;-62
2021/08/24 09:10:15;;;;;;;4.10;2.20;;;19.20;99.90;;;;;;5093041;28;20178;-63
2021/08/24 09:12:44;;;;;;;2.88;2.10;;;19.20;99.90;;;;;;5091731;28;20060;-67
2021/08/24 09:15:17;;;;;;;3.42;1.92;;;19.30;99.90;;;;;;5081019;28;20028;-63
2021/08/24 09:17:43;;;;;;;7.22;2.10;;;19.40;99.90;;;;;;5072790;28;20025;-63
2021/08/24 09:20:16;;;;;;;3.63;2.28;;;19.50;99.90;;;;;;5087571;28;20164;-66
2021/08/24 09:22:43;;;;;;;5.60;2.13;;;19.50;99.90;;;;;;5093700;28;20105;-66
2021/08/24 09:25:14;;;;;;;6.82;2.45;;;19.60;99.90;;;;;;5095885;28;20119;-66
2021/08/24 09:27:58;;;;;;;4.43;2.67;;;19.60;99.90;;;;;;5105821;28;20067;-64
2021/08/24 09:30:24;;;;;;;4.63;2.63;;;19.70;99.90;;;;;;5066320;28;20105;-64
2021/08/24 09:32:50;;;;;;;5.47;3.08;;;19.80;99.90;;;;;;5087361;28;20091;-64
2021/08/24 09:35:28;;;;;;;4.85;2.65;;;19.90;99.90;;;;;;5101245;28;20070;-65
2021/08/24 09:37:55;;;;;;;6.47;2.80;;;20.00;99.90;;;;;;5103235;28;20016;-66
2021/08/24 09:40:44;;;;;;;7.53;2.80;;;20.10;99.90;;;;;;5103810;28;20028;-63
2021/08/24 09:43:33;;;;;;;5.93;3.28;;;20.20;99.90;;;;;;5102441;28;20019;-64
2021/08/24 09:46:01;;;;;;;6.60;3.17;;;20.30;99.90;;;;;;5106070;28;20020;-64
2021/08/24 09:48:29;;;;;;;4.85;2.80;;;20.40;99.90;;;;;;5099122;28;20084;-62
2021/08/24 09:51:16;;;;;;;5.82;3.30;;;20.40;99.90;;;;;;5079829;28;20031;-65
2021/08/24 09:53:42;;;;;;;6.00;2.90;;;20.40;99.90;;;;;;5100517;28;20552;-64
2021/08/24 09:56:09;;;;;;;6.20;3.13;;;20.50;99.90;;;;;;5100831;28;20028;-64
2021/08/24 09:58:38;;;;;;;5.18;2.60;;;20.60;99.90;;;;;;5099941;28;20020;-64
2021/08/24 10:01:16;;;;;;;5.10;2.75;;;20.80;99.90;;;;;;5087794;28;20036;-63
2021/08/24 10:03:41;;;;;;;8.32;2.83;;;20.90;99.90;;;;;;5094174;28;20080;-63
2021/08/24 10:06:29;;;;;;;6.72;3.15;;;20.90;99.90;;;;;;5076314;28;20115;-67
2021/08/24 10:09:31;;;;;;;6.93;3.30;;;21.10;99.90;;;;;;5063313;28;20506;-65
2021/08/24 10:12:26;;;;;;;5.00;3.13;;;21.30;99.90;;;;;;5101998;28;20051;-63
2021/08/24 10:14:52;;;;;;;;;;;21.40;99.90;;;;;;5067691;28;20032;-66
2021/08/24 10:17:37;;;;;;;7.07;3.20;;;21.60;99.90;;;;;;5103981;28;19991;-63
2021/08/24 10:20:22;;;;;;;6.65;3.38;;;21.60;99.90;;;;;;5097572;28;20016;-67
2021/08/24 10:22:51;;;;;;;5.82;3.17;;;21.80;99.90;;;;;;5079893;28;20024;-62
2021/08/24 10:25:27;;;;;;;8.27;3.58;;;22.00;99.90;;;;;;5093952;28;20103;-61
2021/08/24 10:28:12;;;;;;;6.47;3.67;;;22.20;99.90;;;;;;5098015;28;20063;-62
2021/08/24 10:30:51;;;;;;;6.85;3.30;;;22.10;99.90;;;;;;5097941;28;20024;-63
2021/08/24 10:33:29;;;;;;;5.35;3.30;;;22.10;99.90;;;;;;5079506;28;20047;-61
2021/08/24 10:36:13;;;;;;;11.77;3.15;;;22.20;99.90;;;;;;5095620;28;20033;-63
2021/08/24 10:38:56;;;;;;;7.82;3.33;;;22.40;99.90;;;;;;5071554;28;20032;-62
2021/08/24 10:42:08;;;;;;;4.78;3.03;;;22.70;99.90;;;;;;5076313;28;20062;-62
2021/08/24 10:44:53;;;;;;;5.07;3.20;;;22.90;99.90;;;;;;5086612;28;20058;-63
2021/08/24 10:47:26;;;;;;;8.25;3.28;;;22.70;99.90;;;;;;5083959;28;20024;-61
2021/08/24 10:49:54;;;;;;;6.85;3.30;;;22.70;99.90;;;;;;5090066;28;20032;-63
2021/08/24 10:52:29;;;;;;;6.97;3.15;;;23.10;99.90;;;;;;5086517;28;20515;-63
2021/08/24 10:55:14;;;;;;;8.98;3.60;;;22.90;99.40;;;;;;5079294;28;20078;-65
2021/08/24 10:58:17;;;;;;;5.38;3.00;;;22.80;99.10;;;;;;5063076;28;20021;-63
2021/08/24 11:00:53;;;;;;;5.15;2.88;;;22.80;99.90;;;;;;5078412;28;20031;-62
2021/08/24 11:04:01;;;;;;;5.35;2.92;;;23.10;99.50;;;;;;5086375;28;20023;-62
2021/08/24 11:06:27;;;;;;;5.20;3.10;;;23.30;99.90;;;;;;5082268;28;20063;-62
2021/08/24 11:08:58;;;;;;;8.07;3.10;;;23.50;95.70;;;;;;5081553;28;20059;-61
2021/08/24 11:11:38;;;;;;;10.13;2.90;;;23.10;95.50;;;;;;5089355;28;20031;-63
2021/08/24 11:14:26;;;;;;;9.45;3.50;;;23.10;96.50;;;;;;5068127;28;20376;-64
2021/08/24 11:17:31;;;;;;;5.60;3.00;;;23.20;96.30;;;;;;5084559;28;20097;-64
2021/08/24 11:20:08;;;;;;;;;;;23.30;96.70;;;;;;5066351;28;20036;-63
2021/08/24 11:22:59;;;;;;;5.50;3.10;;;23.30;97.80;;;;;;5088515;28;20422;-62
2021/08/24 11:25:48;;;;;;;5.63;2.60;;;23.40;98.00;;;;;;5081111;28;20097;-62
2021/08/24 11:28:35;;;;;;;7.38;3.38;;;23.70;95.40;;;;;;5085927;28;20024;-62
2021/08/24 11:31:24;;;;;;;5.13;3.10;;;23.70;95.20;;;;;;5082772;28;20127;-62
2021/08/24 11:34:11;;;;;;;5.75;3.28;;;23.70;96.00;;;;;;5089361;28;20102;-65
2021/08/24 11:36:55;;;;;;;6.25;3.03;;;24.00;95.70;;;;;;5084765;28;20042;-66
2021/08/24 11:39:29;;;;;;;6.85;2.65;;;24.00;94.50;;;;;;5090457;28;20031;-67
2021/08/24 11:42:03;;;;;;;;;;;24.00;93.00;;;;;;5085413;28;20027;-62
2021/08/24 11:45:03;;;;;;;12.93;3.08;;;24.00;94.80;;;;;;5091114;28;20007;-65
2021/08/24 11:47:39;;;;;;;7.13;3.47;;;24.00;93.60;;;;;;5061232;28;20449;-64
2021/08/24 11:50:17;;;;;;;7.82;3.08;;;23.90;92.00;;;;;;5087048;28;20043;-62
2021/08/24 11:53:06;;;;;;;6.15;3.00;;;23.80;92.20;;;;;;5085320;28;20078;-62
2021/08/24 11:55:36;;;;;;;7.03;3.10;;;23.50;92.20;;;;;;5088048;28;20028;-64
2021/08/24 11:58:34;;;;;;;5.55;2.55;;;23.60;93.90;;;;;;5083270;28;20030;-62
2021/08/24 12:01:03;;;;;;;5.65;3.20;;;23.90;94.30;;;;;;5085549;28;20049;-62
2021/08/24 12:03:29;;;;;;;6.45;3.25;;;23.90;93.00;;;;;;5088593;28;20447;-62
2021/08/24 12:06:01;;;;;;;6.18;3.17;;;24.00;93.70;;;;;;5085436;28;20417;-61
2021/08/24 12:08:29;;;;;;;4.93;3.35;;;23.90;98.80;;;;;;5088375;28;20027;-62
2021/08/24 12:11:05;;;;;;;4.30;3.00;;;24.00;93.00;;;;;;5081494;28;20399;-63
2021/08/24 12:13:38;;;;;;;7.40;3.70;;;24.10;95.90;;;;;;5083289;28;20028;-64
2021/08/24 12:16:31;;;;;;;6.03;3.00;;;24.00;96.50;;;;;;5084628;28;20096;-63
2021/08/24 12:18:59;;;;;;;5.70;3.28;;;24.20;96.30;;;;;;5073992;28;20059;-64
2021/08/24 12:21:52;;;;;;;6.80;3.15;;;24.20;94.50;;;;;;5081483;28;20016;-63
2021/08/24 12:24:23;;;;;;;7.95;3.63;;;24.20;95.40;;;;;;5081212;28;20059;-63
2021/08/24 12:27:12;;;;;;;6.72;3.42;;;24.40;96.60;;;;;;5087637;28;20066;-64
2021/08/24 12:29:39;;;;;;;8.35;3.15;;;24.40;93.10;;;;;;5081935;28;20392;-63
2021/08/24 12:32:24;;;;;;;6.78;3.85;;;24.30;93.80;;;;;;5079793;28;20107;-64
2021/08/24 12:35:13;;;;;;;6.68;3.38;;;24.10;95.50;;;;;;5082687;28;20038;-63
2021/08/24 12:37:39;;;;;;;8.30;3.40;;;24.00;94.40;;;;;;5089345;28;20028;-63
2021/08/24 12:40:10;;;;;;;7.47;3.42;;;23.90;94.60;;;;;;5089463;28;20500;-64
2021/08/24 12:42:37;;;;;;;6.38;3.08;;;24.00;94.80;;;;;;5089737;28;20043;-64
2021/08/24 12:45:02;;;;;;;6.50;3.10;;;24.10;95.30;;;;;;5088603;28;20020;-64
2021/08/24 12:47:31;;;;;;;9.13;3.55;;;24.30;95.70;;;;;;5085961;28;20031;-64
2021/08/24 12:50:08;;;;;;;81.78;11.05;;;24.40;94.90;;;;;;5084329;28;20020;-64
2021/08/24 12:52:38;;;;;;;6.97;3.33;;;24.40;95.30;;;;;;5071071;28;20547;-64
2021/08/24 12:55:07;;;;;;;8.23;3.40;;;24.20;95.30;;;;;;5087937;28;20034;-64
2021/08/24 12:57:42;;;;;;;6.85;3.38;;;24.10;96.20;;;;;;5087848;28;20524;-63
2021/08/24 13:00:17;;;;;;;3.70;2.60;;;24.40;99.20;;;;;;5090578;28;20116;-65
2021/08/24 13:02:57;;;;;;;5.32;2.72;;;24.40;96.00;;;;;;5087190;28;20099;-66
2021/08/24 13:05:34;;;;;;;6.70;3.17;;;24.20;96.20;;;;;;5066486;28;20578;-65